sensor_id;sensor_type;location;lat;lon;timestamp;temperature;humidity
46490;DHT22;32204;49.160;8.580;2022-12-07T00:01:21;6.10;99.90
46490;DHT22;32204;49.160;8.580;2022-12-07T00:03:48;6.10;99.90
46490;DHT22;32204;49.160;8.580;2022-12-07T00:06:16;6.10;99.90
46490;DHT22;32204;49.160;8.580;2022-12-07T00:08:43;6.00;99.90
46490;DHT22;32204;49.160;8.580;2022-12-07T00:11:14;6.00;99.90
46490;DHT22;32204;49.160;8.580;2022-12-07T00:13:40;6.00;99.90
46490;DHT22;32204;49.160;8.580;2022-12-07T00:16:09;6.00;99.90
46490;DHT22;32204;49.160;8.580;2022-12-07T00:18:35;6.00;99.90
46490;DHT22;32204;49.160;8.580;2022-12-07T00:21:06;6.00;99.90
46490;DHT22;32204;49.160;8.580;2022-12-07T00:23:33;6.10;99.90
46490;DHT22;32204;49.160;8.580;2022-12-07T00:26:10;6.20;99.90
46490;DHT22;32204;49.160;8.580;2022-12-07T00:28:36;6.20;99.90
46490;DHT22;32204;49.160;8.580;2022-12-07T00:31:10;6.10;99.90
46490;DHT22;32204;49.160;8.580;2022-12-07T00:33:36;6.20;99.90
46490;DHT22;32204;49.160;8.580;2022-12-07T00:36:05;6.20;99.90
46490;DHT22;32204;49.160;8.580;2022-12-07T00:38:33;6.20;99.90
46490;DHT22;32204;49.160;8.580;2022-12-07T00:41:00;6.20;99.90
46490;DHT22;32204;49.160;8.580;2022-12-07T00:43:27;6.20;99.90
46490;DHT22;32204;49.160;8.580;2022-12-07T00:45:53;6.30;99.90
46490;DHT22;32204;49.160;8.580;2022-12-07T00:48:19;6.30;99.90
46490;DHT22;32204;49.160;8.580;2022-12-07T00:50:45;6.30;99.90
46490;DHT22;32204;49.160;8.580;2022-12-07T00:53:10;6.40;99.90
46490;DHT22;32204;49.160;8.580;2022-12-07T00:55:36;6.40;99.90
46490;DHT22;32204;49.160;8.580;2022-12-07T00:58:02;6.40;99.90
46490;DHT22;32204;49.160;8.580;2022-12-07T01:00:28;6.40;99.90
46490;DHT22;32204;49.160;8.580;2022-12-07T01:02:54;6.40;99.90
46490;DHT22;32204;49.160;8.580;2022-12-07T01:05:20;6.40;99.90
46490;DHT22;32204;49.160;8.580;2022-12-07T01:07:45;6.20;99.90
46490;DHT22;32204;49.160;8.580;2022-12-07T01:10:12;6.10;99.90
46490;DHT22;32204;49.160;8.580;2022-12-07T01:12:38;6.00;99.90
46490;DHT22;32204;49.160;8.580;2022-12-07T01:15:04;5.90;99.90
46490;DHT22;32204;49.160;8.580;2022-12-07T01:17:30;5.90;99.90
46490;DHT22;32204;49.160;8.580;2022-12-07T01:19:55;5.90;99.90
46490;DHT22;32204;49.160;8.580;2022-12-07T01:22:21;6.00;99.90
46490;DHT22;32204;49.160;8.580;2022-12-07T01:24:47;6.10;99.90
46490;DHT22;32204;49.160;8.580;2022-12-07T01:27:13;6.10;99.90
46490;DHT22;32204;49.160;8.580;2022-12-07T01:29:38;6.10;99.90
46490;DHT22;32204;49.160;8.580;2022-12-07T01:32:04;6.00;99.90
46490;DHT22;32204;49.160;8.580;2022-12-07T01:34:30;6.00;99.90
46490;DHT22;32204;49.160;8.580;2022-12-07T01:36:55;6.00;99.90
46490;DHT22;32204;49.160;8.580;2022-12-07T01:39:21;6.00;99.90
46490;DHT22;32204;49.160;8.580;2022-12-07T01:41:47;5.90;99.90
46490;DHT22;32204;49.160;8.580;2022-12-07T01:46:44;5.80;99.90
46490;DHT22;32204;49.160;8.580;2022-12-07T01:49:12;5.80;99.90
46490;DHT22;32204;49.160;8.580;2022-12-07T01:51:38;5.70;99.90
46490;DHT22;32204;49.160;8.580;2022-12-07T01:54:05;5.60;99.90
46490;DHT22;32204;49.160;8.580;2022-12-07T01:56:32;5.60;99.90
46490;DHT22;32204;49.160;8.580;2022-12-07T01:58:59;5.50;99.90
46490;DHT22;32204;49.160;8.580;2022-12-07T02:01:25;5.50;99.90
46490;DHT22;32204;49.160;8.580;2022-12-07T02:03:51;5.60;99.90
46490;DHT22;32204;49.160;8.580;2022-12-07T02:06:22;5.60;99.90
46490;DHT22;32204;49.160;8.580;2022-12-07T02:08:49;5.70;99.90
46490;DHT22;32204;49.160;8.580;2022-12-07T02:11:15;5.60;99.90
46490;DHT22;32204;49.160;8.580;2022-12-07T02:13:43;5.50;99.90
46490;DHT22;32204;49.160;8.580;2022-12-07T02:22:16;5.60;99.90
46490;DHT22;32204;49.160;8.580;2022-12-07T02:27:47;5.50;99.90
46490;DHT22;32204;49.160;8.580;2022-12-07T02:30:18;5.40;99.90
46490;DHT22;32204;49.160;8.580;2022-12-07T02:33:37;5.50;99.90
46490;DHT22;32204;49.160;8.580;2022-12-07T02:35:56;5.50;99.90
46490;DHT22;32204;49.160;8.580;2022-12-07T02:41:13;5.60;99.90
46490;DHT22;32204;49.160;8.580;2022-12-07T02:43:48;5.60;99.90
46490;DHT22;32204;49.160;8.580;2022-12-07T02:46:22;5.70;99.90
46490;DHT22;32204;49.160;8.580;2022-12-07T02:48:50;5.80;99.90
46490;DHT22;32204;49.160;8.580;2022-12-07T02:51:18;5.60;99.90
46490;DHT22;32204;49.160;8.580;2022-12-07T02:53:46;5.60;99.90
46490;DHT22;32204;49.160;8.580;2022-12-07T03:01:35;5.50;99.90
46490;DHT22;32204;49.160;8.580;2022-12-07T03:04:11;5.40;99.90
46490;DHT22;32204;49.160;8.580;2022-12-07T03:06:44;5.40;99.90
46490;DHT22;32204;49.160;8.580;2022-12-07T03:09:14;5.30;99.90
46490;DHT22;32204;49.160;8.580;2022-12-07T03:11:50;5.20;99.90
46490;DHT22;32204;49.160;8.580;2022-12-07T03:14:35;5.20;99.90
46490;DHT22;32204;49.160;8.580;2022-12-07T03:17:16;5.10;99.90
46490;DHT22;32204;49.160;8.580;2022-12-07T03:19:45;5.10;99.90
46490;DHT22;32204;49.160;8.580;2022-12-07T03:22:13;5.10;99.90
46490;DHT22;32204;49.160;8.580;2022-12-07T03:24:44;5.10;99.90
46490;DHT22;32204;49.160;8.580;2022-12-07T03:27:22;5.10;99.90
46490;DHT22;32204;49.160;8.580;2022-12-07T03:29:59;5.10;99.90
46490;DHT22;32204;49.160;8.580;2022-12-07T03:32:35;5.10;99.90
46490;DHT22;32204;49.160;8.580;2022-12-07T03:42:36;5.00;99.90
46490;DHT22;32204;49.160;8.580;2022-12-07T03:45:02;5.00;99.90
46490;DHT22;32204;49.160;8.580;2022-12-07T03:47:47;5.00;99.90
46490;DHT22;32204;49.160;8.580;2022-12-07T03:52:58;4.90;99.90
46490;DHT22;32204;49.160;8.580;2022-12-07T03:55:31;4.90;99.90
46490;DHT22;32204;49.160;8.580;2022-12-07T03:58:09;4.90;99.90
46490;DHT22;32204;49.160;8.580;2022-12-07T04:00:35;5.00;99.90
46490;DHT22;32204;49.160;8.580;2022-12-07T04:03:01;5.10;99.90
46490;DHT22;32204;49.160;8.580;2022-12-07T04:05:27;5.20;99.90
46490;DHT22;32204;49.160;8.580;2022-12-07T04:07:53;5.20;99.90
46490;DHT22;32204;49.160;8.580;2022-12-07T04:10:18;5.10;99.90
46490;DHT22;32204;49.160;8.580;2022-12-07T04:12:44;5.10;99.90
46490;DHT22;32204;49.160;8.580;2022-12-07T04:15:10;5.10;99.90
46490;DHT22;32204;49.160;8.580;2022-12-07T04:17:36;5.20;99.90
46490;DHT22;32204;49.160;8.580;2022-12-07T04:20:02;5.30;99.90
46490;DHT22;32204;49.160;8.580;2022-12-07T04:22:29;5.40;99.90
46490;DHT22;32204;49.160;8.580;2022-12-07T04:24:54;5.30;99.90
46490;DHT22;32204;49.160;8.580;2022-12-07T04:27:26;5.40;99.90
46490;DHT22;32204;49.160;8.580;2022-12-07T04:29:52;5.30;99.90
46490;DHT22;32204;49.160;8.580;2022-12-07T04:32:17;5.20;99.90
46490;DHT22;32204;49.160;8.580;2022-12-07T04:34:43;5.20;99.90
46490;DHT22;32204;49.160;8.580;2022-12-07T04:37:08;5.20;99.90
46490;DHT22;32204;49.160;8.580;2022-12-07T04:39:34;5.20;99.90
46490;DHT22;32204;49.160;8.580;2022-12-07T04:42:01;5.20;99.90
46490;DHT22;32204;49.160;8.580;2022-12-07T04:44:27;5.30;99.90
46490;DHT22;32204;49.160;8.580;2022-12-07T04:46:54;5.20;99.90
46490;DHT22;32204;49.160;8.580;2022-12-07T04:49:21;5.20;99.90
46490;DHT22;32204;49.160;8.580;2022-12-07T04:51:47;5.30;99.90
46490;DHT22;32204;49.160;8.580;2022-12-07T04:54:13;5.30;99.90
46490;DHT22;32204;49.160;8.580;2022-12-07T04:56:39;5.40;99.90
46490;DHT22;32204;49.160;8.580;2022-12-07T04:59:05;5.30;99.90
46490;DHT22;32204;49.160;8.580;2022-12-07T05:01:31;5.30;99.90
46490;DHT22;32204;49.160;8.580;2022-12-07T05:03:57;5.30;99.90
46490;DHT22;32204;49.160;8.580;2022-12-07T05:06:24;5.30;99.90
46490;DHT22;32204;49.160;8.580;2022-12-07T05:08:49;5.30;99.90
46490;DHT22;32204;49.160;8.580;2022-12-07T05:11:15;5.20;99.90
46490;DHT22;32204;49.160;8.580;2022-12-07T05:14:00;5.20;99.90
46490;DHT22;32204;49.160;8.580;2022-12-07T05:16:27;5.30;99.90
46490;DHT22;32204;49.160;8.580;2022-12-07T05:18:52;5.30;99.90
46490;DHT22;32204;49.160;8.580;2022-12-07T05:21:18;5.20;99.90
46490;DHT22;32204;49.160;8.580;2022-12-07T05:23:43;5.20;99.90
46490;DHT22;32204;49.160;8.580;2022-12-07T05:26:09;5.20;99.90
46490;DHT22;32204;49.160;8.580;2022-12-07T05:28:35;5.20;99.90
46490;DHT22;32204;49.160;8.580;2022-12-07T05:31:00;5.10;99.90
46490;DHT22;32204;49.160;8.580;2022-12-07T05:33:26;5.00;99.90
46490;DHT22;32204;49.160;8.580;2022-12-07T05:35:52;5.10;99.90
46490;DHT22;32204;49.160;8.580;2022-12-07T05:38:17;5.00;99.90
46490;DHT22;32204;49.160;8.580;2022-12-07T05:40:43;5.00;99.90
46490;DHT22;32204;49.160;8.580;2022-12-07T05:43:08;4.90;99.90
46490;DHT22;32204;49.160;8.580;2022-12-07T05:45:34;5.00;99.90
46490;DHT22;32204;49.160;8.580;2022-12-07T05:47:59;5.00;99.90
46490;DHT22;32204;49.160;8.580;2022-12-07T05:50:25;5.00;99.90
46490;DHT22;32204;49.160;8.580;2022-12-07T05:52:51;4.90;99.90
46490;DHT22;32204;49.160;8.580;2022-12-07T05:55:16;4.90;99.90
46490;DHT22;32204;49.160;8.580;2022-12-07T05:57:42;5.00;99.90
46490;DHT22;32204;49.160;8.580;2022-12-07T06:00:31;5.00;99.90
46490;DHT22;32204;49.160;8.580;2022-12-07T06:02:56;5.00;99.90
46490;DHT22;32204;49.160;8.580;2022-12-07T06:05:22;4.90;99.90
46490;DHT22;32204;49.160;8.580;2022-12-07T06:07:48;5.00;99.90
46490;DHT22;32204;49.160;8.580;2022-12-07T06:10:13;5.00;99.90
46490;DHT22;32204;49.160;8.580;2022-12-07T06:12:39;5.00;99.90
46490;DHT22;32204;49.160;8.580;2022-12-07T06:15:08;5.00;99.90
46490;DHT22;32204;49.160;8.580;2022-12-07T06:17:34;5.00;99.90
46490;DHT22;32204;49.160;8.580;2022-12-07T06:19:59;4.90;99.90
46490;DHT22;32204;49.160;8.580;2022-12-07T06:22:25;4.90;99.90
46490;DHT22;32204;49.160;8.580;2022-12-07T06:24:50;5.00;99.90
46490;DHT22;32204;49.160;8.580;2022-12-07T06:27:16;5.00;99.90
46490;DHT22;32204;49.160;8.580;2022-12-07T06:29:42;5.00;99.90
46490;DHT22;32204;49.160;8.580;2022-12-07T06:32:08;4.90;99.90
46490;DHT22;32204;49.160;8.580;2022-12-07T06:34:34;4.90;99.90
46490;DHT22;32204;49.160;8.580;2022-12-07T06:37:00;4.90;99.90
46490;DHT22;32204;49.160;8.580;2022-12-07T06:39:27;4.90;99.90
46490;DHT22;32204;49.160;8.580;2022-12-07T06:41:53;4.90;99.90
46490;DHT22;32204;49.160;8.580;2022-12-07T06:44:20;4.90;99.90
46490;DHT22;32204;49.160;8.580;2022-12-07T06:46:45;4.90;99.90
46490;DHT22;32204;49.160;8.580;2022-12-07T06:49:11;4.90;99.90
46490;DHT22;32204;49.160;8.580;2022-12-07T06:51:37;4.90;99.90
46490;DHT22;32204;49.160;8.580;2022-12-07T06:54:11;5.00;99.90
46490;DHT22;32204;49.160;8.580;2022-12-07T06:56:37;5.00;99.90
46490;DHT22;32204;49.160;8.580;2022-12-07T06:59:04;5.10;99.90
46490;DHT22;32204;49.160;8.580;2022-12-07T07:01:31;5.10;99.90
46490;DHT22;32204;49.160;8.580;2022-12-07T07:03:56;5.00;99.90
46490;DHT22;32204;49.160;8.580;2022-12-07T07:06:22;4.90;99.90
46490;DHT22;32204;49.160;8.580;2022-12-07T07:08:48;4.90;99.90
46490;DHT22;32204;49.160;8.580;2022-12-07T07:11:13;4.90;99.90
46490;DHT22;32204;49.160;8.580;2022-12-07T07:13:39;4.90;99.90
46490;DHT22;32204;49.160;8.580;2022-12-07T07:16:05;4.90;99.90
46490;DHT22;32204;49.160;8.580;2022-12-07T07:18:31;4.90;99.90
46490;DHT22;32204;49.160;8.580;2022-12-07T07:20:58;5.10;99.90
46490;DHT22;32204;49.160;8.580;2022-12-07T07:23:23;5.00;99.90
46490;DHT22;32204;49.160;8.580;2022-12-07T07:25:49;4.90;99.90
46490;DHT22;32204;49.160;8.580;2022-12-07T07:28:18;5.00;99.90
46490;DHT22;32204;49.160;8.580;2022-12-07T07:30:43;5.00;99.90
46490;DHT22;32204;49.160;8.580;2022-12-07T07:33:10;5.00;99.90
46490;DHT22;32204;49.160;8.580;2022-12-07T07:35:35;5.10;99.90
46490;DHT22;32204;49.160;8.580;2022-12-07T07:38:02;5.00;99.90
46490;DHT22;32204;49.160;8.580;2022-12-07T07:40:28;5.10;99.90
46490;DHT22;32204;49.160;8.580;2022-12-07T07:42:55;5.10;99.90
46490;DHT22;32204;49.160;8.580;2022-12-07T07:45:22;5.00;99.90
46490;DHT22;32204;49.160;8.580;2022-12-07T07:47:49;4.90;99.90
46490;DHT22;32204;49.160;8.580;2022-12-07T07:50:15;5.00;99.90
46490;DHT22;32204;49.160;8.580;2022-12-07T07:52:43;4.90;99.90
46490;DHT22;32204;49.160;8.580;2022-12-07T07:55:09;5.00;99.90
46490;DHT22;32204;49.160;8.580;2022-12-07T07:57:36;5.00;99.90
46490;DHT22;32204;49.160;8.580;2022-12-07T08:00:05;5.00;99.90
46490;DHT22;32204;49.160;8.580;2022-12-07T08:02:31;5.00;99.90
46490;DHT22;32204;49.160;8.580;2022-12-07T08:04:57;5.10;99.90
46490;DHT22;32204;49.160;8.580;2022-12-07T08:07:23;5.10;99.90
46490;DHT22;32204;49.160;8.580;2022-12-07T08:09:51;5.10;99.90
46490;DHT22;32204;49.160;8.580;2022-12-07T08:12:17;5.20;99.90
46490;DHT22;32204;49.160;8.580;2022-12-07T08:14:43;5.20;99.90
46490;DHT22;32204;49.160;8.580;2022-12-07T08:17:09;5.20;99.90
46490;DHT22;32204;49.160;8.580;2022-12-07T08:19:34;5.20;98.10
46490;DHT22;32204;49.160;8.580;2022-12-07T08:22:00;5.30;80.60
46490;DHT22;32204;49.160;8.580;2022-12-07T08:24:26;5.30;58.60
46490;DHT22;32204;49.160;8.580;2022-12-07T08:26:51;5.20;50.40
46490;DHT22;32204;49.160;8.580;2022-12-07T08:29:17;5.30;57.00
46490;DHT22;32204;49.160;8.580;2022-12-07T08:31:43;5.20;51.20
46490;DHT22;32204;49.160;8.580;2022-12-07T08:34:12;5.40;56.00
46490;DHT22;32204;49.160;8.580;2022-12-07T08:36:38;5.40;12.00
46490;DHT22;32204;49.160;8.580;2022-12-07T08:39:04;5.40;17.40
46490;DHT22;32204;49.160;8.580;2022-12-07T08:41:30;5.50;14.60
46490;DHT22;32204;49.160;8.580;2022-12-07T08:43:56;5.60;1.00
46490;DHT22;32204;49.160;8.580;2022-12-07T08:46:36;5.50;1.00
46490;DHT22;32204;49.160;8.580;2022-12-07T08:49:04;5.50;1.00
46490;DHT22;32204;49.160;8.580;2022-12-07T08:51:31;5.50;1.00
46490;DHT22;32204;49.160;8.580;2022-12-07T08:53:58;5.50;1.00
46490;DHT22;32204;49.160;8.580;2022-12-07T08:56:26;5.60;1.00
46490;DHT22;32204;49.160;8.580;2022-12-07T08:58:52;5.50;1.00
46490;DHT22;32204;49.160;8.580;2022-12-07T09:01:18;5.50;1.00
46490;DHT22;32204;49.160;8.580;2022-12-07T09:03:43;5.50;1.00
46490;DHT22;32204;49.160;8.580;2022-12-07T09:06:09;5.50;1.00
46490;DHT22;32204;49.160;8.580;2022-12-07T09:08:46;5.50;1.00
46490;DHT22;32204;49.160;8.580;2022-12-07T09:11:12;5.60;1.00
46490;DHT22;32204;49.160;8.580;2022-12-07T09:13:37;5.40;1.00
46490;DHT22;32204;49.160;8.580;2022-12-07T09:16:03;5.40;1.00
46490;DHT22;32204;49.160;8.580;2022-12-07T09:18:29;5.30;1.00
46490;DHT22;32204;49.160;8.580;2022-12-07T09:20:56;5.50;1.00
46490;DHT22;32204;49.160;8.580;2022-12-07T09:23:22;5.50;1.00
46490;DHT22;32204;49.160;8.580;2022-12-07T09:25:47;5.50;1.00
46490;DHT22;32204;49.160;8.580;2022-12-07T09:28:13;5.40;1.00
46490;DHT22;32204;49.160;8.580;2022-12-07T09:30:38;5.50;1.00
46490;DHT22;32204;49.160;8.580;2022-12-07T09:33:04;5.50;1.00
46490;DHT22;32204;49.160;8.580;2022-12-07T09:35:30;5.60;1.00
46490;DHT22;32204;49.160;8.580;2022-12-07T09:37:55;5.70;1.00
46490;DHT22;32204;49.160;8.580;2022-12-07T09:40:22;5.60;1.00
46490;DHT22;32204;49.160;8.580;2022-12-07T09:42:52;5.60;1.00
46490;DHT22;32204;49.160;8.580;2022-12-07T09:45:35;5.70;1.00
46490;DHT22;32204;49.160;8.580;2022-12-07T09:48:05;5.60;2.60
46490;DHT22;32204;49.160;8.580;2022-12-07T09:50:34;5.50;31.40
46490;DHT22;32204;49.160;8.580;2022-12-07T09:53:09;5.50;66.50
46490;DHT22;32204;49.160;8.580;2022-12-07T09:55:38;5.50;64.80
46490;DHT22;32204;49.160;8.580;2022-12-07T09:58:05;5.50;96.00
46490;DHT22;32204;49.160;8.580;2022-12-07T10:00:31;5.40;82.80
46490;DHT22;32204;49.160;8.580;2022-12-07T10:02:59;5.40;90.80
46490;DHT22;32204;49.160;8.580;2022-12-07T10:05:52;5.40;97.30
46490;DHT22;32204;49.160;8.580;2022-12-07T10:08:19;5.40;99.90
46490;DHT22;32204;49.160;8.580;2022-12-07T10:10:50;5.50;92.70
46490;DHT22;32204;49.160;8.580;2022-12-07T10:15:59;5.50;74.40
46490;DHT22;32204;49.160;8.580;2022-12-07T10:18:39;5.50;94.20
46490;DHT22;32204;49.160;8.580;2022-12-07T10:26:40;5.80;19.30
46490;DHT22;32204;49.160;8.580;2022-12-07T10:29:30;5.60;20.20
46490;DHT22;32204;49.160;8.580;2022-12-07T10:34:36;5.80;1.00
46490;DHT22;32204;49.160;8.580;2022-12-07T10:39:50;5.80;14.70
46490;DHT22;32204;49.160;8.580;2022-12-07T10:42:25;5.80;2.70
46490;DHT22;32204;49.160;8.580;2022-12-07T10:58:42;5.80;1.00
46490;DHT22;32204;49.160;8.580;2022-12-07T11:01:22;5.80;1.00
46490;DHT22;32204;49.160;8.580;2022-12-07T11:04:13;5.80;1.00
46490;DHT22;32204;49.160;8.580;2022-12-07T11:07:01;5.80;1.00
46490;DHT22;32204;49.160;8.580;2022-12-07T11:09:40;5.90;1.00
46490;DHT22;32204;49.160;8.580;2022-12-07T11:15:48;6.00;1.00
46490;DHT22;32204;49.160;8.580;2022-12-07T11:18:24;6.00;1.00
46490;DHT22;32204;49.160;8.580;2022-12-07T11:23:53;5.80;1.00
46490;DHT22;32204;49.160;8.580;2022-12-07T11:29:41;6.10;1.00
46490;DHT22;32204;49.160;8.580;2022-12-07T11:35:32;6.30;1.00
46490;DHT22;32204;49.160;8.580;2022-12-07T11:38:10;6.30;1.00
46490;DHT22;32204;49.160;8.580;2022-12-07T11:40:38;6.30;1.00
46490;DHT22;32204;49.160;8.580;2022-12-07T11:45:59;6.30;1.00
46490;DHT22;32204;49.160;8.580;2022-12-07T11:48:34;6.30;1.00
46490;DHT22;32204;49.160;8.580;2022-12-07T11:51:02;6.30;1.00
46490;DHT22;32204;49.160;8.580;2022-12-07T11:56:11;6.30;1.00
46490;DHT22;32204;49.160;8.580;2022-12-07T11:58:56;6.30;1.00
46490;DHT22;32204;49.160;8.580;2022-12-07T12:04:28;6.50;1.00
46490;DHT22;32204;49.160;8.580;2022-12-07T12:06:56;6.40;1.00
46490;DHT22;32204;49.160;8.580;2022-12-07T12:09:48;6.50;1.00
46490;DHT22;32204;49.160;8.580;2022-12-07T12:15:42;6.70;1.00
46490;DHT22;32204;49.160;8.580;2022-12-07T12:21:16;6.70;1.00
46490;DHT22;32204;49.160;8.580;2022-12-07T12:24:31;6.60;1.00
46490;DHT22;32204;49.160;8.580;2022-12-07T12:26:35;6.60;1.00
46490;DHT22;32204;49.160;8.580;2022-12-07T12:29:06;6.60;1.00
46490;DHT22;32204;49.160;8.580;2022-12-07T12:31:39;6.60;1.00
46490;DHT22;32204;49.160;8.580;2022-12-07T12:34:38;6.70;1.00
46490;DHT22;32204;49.160;8.580;2022-12-07T12:42:49;6.50;1.00
46490;DHT22;32204;49.160;8.580;2022-12-07T12:45:32;6.60;1.00
46490;DHT22;32204;49.160;8.580;2022-12-07T12:48:02;6.60;1.00
46490;DHT22;32204;49.160;8.580;2022-12-07T12:50:36;6.70;1.00
46490;DHT22;32204;49.160;8.580;2022-12-07T12:53:24;6.60;1.00
46490;DHT22;32204;49.160;8.580;2022-12-07T12:56:11;6.50;1.00
46490;DHT22;32204;49.160;8.580;2022-12-07T12:58:42;6.60;1.00
46490;DHT22;32204;49.160;8.580;2022-12-07T13:03:56;6.60;1.00
46490;DHT22;32204;49.160;8.580;2022-12-07T13:08:54;6.60;1.00
46490;DHT22;32204;49.160;8.580;2022-12-07T13:11:34;6.70;1.00
46490;DHT22;32204;49.160;8.580;2022-12-07T13:17:10;6.70;1.00
46490;DHT22;32204;49.160;8.580;2022-12-07T13:25:33;6.80;1.00
46490;DHT22;32204;49.160;8.580;2022-12-07T13:30:45;6.60;1.00
46490;DHT22;32204;49.160;8.580;2022-12-07T13:33:12;6.70;1.00
46490;DHT22;32204;49.160;8.580;2022-12-07T13:35:41;6.70;1.00
46490;DHT22;32204;49.160;8.580;2022-12-07T13:38:36;6.60;1.00
46490;DHT22;32204;49.160;8.580;2022-12-07T13:41:20;6.60;1.00
46490;DHT22;32204;49.160;8.580;2022-12-07T13:43:59;6.70;1.00
46490;DHT22;32204;49.160;8.580;2022-12-07T13:46:35;6.70;1.00
46490;DHT22;32204;49.160;8.580;2022-12-07T13:49:21;6.80;1.00
46490;DHT22;32204;49.160;8.580;2022-12-07T13:51:47;6.70;1.00
46490;DHT22;32204;49.160;8.580;2022-12-07T13:54:14;6.80;1.00
46490;DHT22;32204;49.160;8.580;2022-12-07T13:56:40;6.70;1.00
46490;DHT22;32204;49.160;8.580;2022-12-07T13:59:22;6.70;1.00
46490;DHT22;32204;49.160;8.580;2022-12-07T14:01:49;6.80;1.00
46490;DHT22;32204;49.160;8.580;2022-12-07T14:06:48;6.70;1.00
46490;DHT22;32204;49.160;8.580;2022-12-07T14:09:22;6.70;1.00
46490;DHT22;32204;49.160;8.580;2022-12-07T14:11:50;6.80;1.00
46490;DHT22;32204;49.160;8.580;2022-12-07T14:14:19;6.60;1.00
46490;DHT22;32204;49.160;8.580;2022-12-07T14:16:59;6.60;1.00
46490;DHT22;32204;49.160;8.580;2022-12-07T14:19:59;6.50;1.00
46490;DHT22;32204;49.160;8.580;2022-12-07T14:27:56;6.50;1.00
46490;DHT22;32204;49.160;8.580;2022-12-07T14:30:28;6.50;1.00
46490;DHT22;32204;49.160;8.580;2022-12-07T14:32:58;6.50;1.00
46490;DHT22;32204;49.160;8.580;2022-12-07T14:35:24;6.50;1.00
46490;DHT22;32204;49.160;8.580;2022-12-07T14:37:50;6.50;1.00
46490;DHT22;32204;49.160;8.580;2022-12-07T14:40:19;6.60;1.00
46490;DHT22;32204;49.160;8.580;2022-12-07T14:42:45;6.60;1.00
46490;DHT22;32204;49.160;8.580;2022-12-07T14:45:17;6.60;1.00
46490;DHT22;32204;49.160;8.580;2022-12-07T14:47:46;6.60;1.00
46490;DHT22;32204;49.160;8.580;2022-12-07T14:50:18;6.60;1.00
46490;DHT22;32204;49.160;8.580;2022-12-07T14:52:48;6.50;1.00
46490;DHT22;32204;49.160;8.580;2022-12-07T14:55:23;6.60;1.00
46490;DHT22;32204;49.160;8.580;2022-12-07T14:57:49;6.50;1.00
46490;DHT22;32204;49.160;8.580;2022-12-07T15:00:15;6.40;1.00
46490;DHT22;32204;49.160;8.580;2022-12-07T15:02:43;6.20;1.00
46490;DHT22;32204;49.160;8.580;2022-12-07T15:05:08;6.20;1.00
46490;DHT22;32204;49.160;8.580;2022-12-07T15:07:34;6.20;1.00
46490;DHT22;32204;49.160;8.580;2022-12-07T15:10:03;6.30;1.00
46490;DHT22;32204;49.160;8.580;2022-12-07T15:12:29;6.30;1.00
46490;DHT22;32204;49.160;8.580;2022-12-07T15:14:55;6.40;1.00
46490;DHT22;32204;49.160;8.580;2022-12-07T15:17:20;6.40;1.00
46490;DHT22;32204;49.160;8.580;2022-12-07T15:19:46;6.40;1.00
46490;DHT22;32204;49.160;8.580;2022-12-07T15:22:14;6.30;1.00
46490;DHT22;32204;49.160;8.580;2022-12-07T15:24:40;6.30;1.00
46490;DHT22;32204;49.160;8.580;2022-12-07T15:27:05;6.20;1.00
46490;DHT22;32204;49.160;8.580;2022-12-07T15:29:31;6.20;1.00
46490;DHT22;32204;49.160;8.580;2022-12-07T15:31:57;6.20;1.00
46490;DHT22;32204;49.160;8.580;2022-12-07T15:34:26;6.20;1.00
46490;DHT22;32204;49.160;8.580;2022-12-07T15:36:54;6.10;1.00
46490;DHT22;32204;49.160;8.580;2022-12-07T15:39:19;6.20;1.00
46490;DHT22;32204;49.160;8.580;2022-12-07T15:41:47;6.10;1.00
46490;DHT22;32204;49.160;8.580;2022-12-07T15:44:13;6.00;1.00
46490;DHT22;32204;49.160;8.580;2022-12-07T15:46:57;6.10;1.00
46490;DHT22;32204;49.160;8.580;2022-12-07T15:49:23;6.00;1.00
46490;DHT22;32204;49.160;8.580;2022-12-07T15:51:49;6.00;1.00
46490;DHT22;32204;49.160;8.580;2022-12-07T15:54:26;6.00;1.00
46490;DHT22;32204;49.160;8.580;2022-12-07T15:56:52;6.00;1.00
46490;DHT22;32204;49.160;8.580;2022-12-07T15:59:18;5.90;1.00
46490;DHT22;32204;49.160;8.580;2022-12-07T16:01:44;6.00;1.00
46490;DHT22;32204;49.160;8.580;2022-12-07T16:04:10;5.90;1.00
46490;DHT22;32204;49.160;8.580;2022-12-07T16:06:36;5.90;1.00
46490;DHT22;32204;49.160;8.580;2022-12-07T16:09:01;5.90;1.00
46490;DHT22;32204;49.160;8.580;2022-12-07T16:11:27;5.90;1.00
46490;DHT22;32204;49.160;8.580;2022-12-07T16:13:53;5.90;1.00
46490;DHT22;32204;49.160;8.580;2022-12-07T16:16:20;5.90;1.00
46490;DHT22;32204;49.160;8.580;2022-12-07T16:18:47;5.80;1.00
46490;DHT22;32204;49.160;8.580;2022-12-07T16:21:14;5.90;1.00
46490;DHT22;32204;49.160;8.580;2022-12-07T16:23:41;5.90;1.00
46490;DHT22;32204;49.160;8.580;2022-12-07T16:26:10;5.90;1.00
46490;DHT22;32204;49.160;8.580;2022-12-07T16:28:36;6.00;1.00
46490;DHT22;32204;49.160;8.580;2022-12-07T16:31:04;5.90;1.00
46490;DHT22;32204;49.160;8.580;2022-12-07T16:33:30;5.80;1.00
46490;DHT22;32204;49.160;8.580;2022-12-07T16:35:55;5.80;1.00
46490;DHT22;32204;49.160;8.580;2022-12-07T16:38:21;5.80;1.00
46490;DHT22;32204;49.160;8.580;2022-12-07T16:40:47;5.80;1.00
46490;DHT22;32204;49.160;8.580;2022-12-07T16:43:13;5.80;1.00
46490;DHT22;32204;49.160;8.580;2022-12-07T16:45:39;5.80;1.00
46490;DHT22;32204;49.160;8.580;2022-12-07T16:48:05;5.70;1.00
46490;DHT22;32204;49.160;8.580;2022-12-07T16:50:31;5.60;1.00
46490;DHT22;32204;49.160;8.580;2022-12-07T16:52:56;5.70;1.00
46490;DHT22;32204;49.160;8.580;2022-12-07T16:55:22;5.60;1.00
46490;DHT22;32204;49.160;8.580;2022-12-07T16:57:47;5.60;1.00
46490;DHT22;32204;49.160;8.580;2022-12-07T17:00:13;5.60;1.00
46490;DHT22;32204;49.160;8.580;2022-12-07T17:02:39;5.50;1.00
46490;DHT22;32204;49.160;8.580;2022-12-07T17:05:04;5.50;1.00
46490;DHT22;32204;49.160;8.580;2022-12-07T17:07:30;5.40;1.00
46490;DHT22;32204;49.160;8.580;2022-12-07T17:09:56;5.50;1.00
46490;DHT22;32204;49.160;8.580;2022-12-07T17:12:21;5.50;1.00
46490;DHT22;32204;49.160;8.580;2022-12-07T17:14:47;5.50;1.00
46490;DHT22;32204;49.160;8.580;2022-12-07T17:17:31;5.50;1.00
46490;DHT22;32204;49.160;8.580;2022-12-07T17:19:57;5.50;1.00
46490;DHT22;32204;49.160;8.580;2022-12-07T17:22:23;5.50;1.00
46490;DHT22;32204;49.160;8.580;2022-12-07T17:24:48;5.60;1.00
46490;DHT22;32204;49.160;8.580;2022-12-07T17:27:15;5.60;1.00
46490;DHT22;32204;49.160;8.580;2022-12-07T17:29:41;5.60;1.00
46490;DHT22;32204;49.160;8.580;2022-12-07T17:32:07;5.70;1.00
46490;DHT22;32204;49.160;8.580;2022-12-07T17:34:32;5.60;1.00
46490;DHT22;32204;49.160;8.580;2022-12-07T17:36:58;5.50;1.00
46490;DHT22;32204;49.160;8.580;2022-12-07T17:39:24;5.50;1.00
46490;DHT22;32204;49.160;8.580;2022-12-07T17:41:50;5.60;1.00
46490;DHT22;32204;49.160;8.580;2022-12-07T17:44:34;5.60;1.00
46490;DHT22;32204;49.160;8.580;2022-12-07T17:47:00;5.60;1.00
46490;DHT22;32204;49.160;8.580;2022-12-07T17:49:28;5.70;1.00
46490;DHT22;32204;49.160;8.580;2022-12-07T17:51:54;5.70;1.00
46490;DHT22;32204;49.160;8.580;2022-12-07T17:54:38;5.60;1.00
46490;DHT22;32204;49.160;8.580;2022-12-07T17:57:04;5.60;1.00
46490;DHT22;32204;49.160;8.580;2022-12-07T17:59:29;5.60;1.00